Starship Express — WCZ3442 — position and weather

sailwx.info

Track history (hours):
 
Tides and Currents Weather Stations Pressure Air Temp Water Temp Dewpoint Dewpoint Depression Visibility Wind Speed Wind Dir Waves Ship Positions

Starship Express

Owner: CATALINA CHANNEL EXPRESS INC, SAN PEDRO, CA. More information available from US FCC via Universal Licensing System and Coast Guard Vessel Documentation Center.

Last reported at 2018-Feb-19 17:58 UTC. Time now 2018-Feb-19 18:15 UTC.
Position N 33°45' W 118°12'.

Length 41 m; draft 3 m.

Type: High speed craft. MMSI: 366768030.

Date/timePositionNaut miles runAvg speedWind from/ knotsBaromVisibWave heightAir tempDewpointWater temp
2018-Feb-19 17:58N 33°45' W 118°12'0 0.0
2018-Feb-19 17:28N 33°45' W 118°12'0 0.0
2018-Feb-19 16:55N 33°45' W 118°12'0 0.0
2018-Feb-19 16:28N 33°45' W 118°12'0 0.0
2018-Feb-19 15:58N 33°45' W 118°12'0 0.0
2018-Feb-19 15:25N 33°45' W 118°12'0 0.0
2018-Feb-19 14:49N 33°45' W 118°12'0 0.0
2018-Feb-19 14:16N 33°45' W 118°12'0 0.0
2018-Feb-19 13:49N 33°45' W 118°12'0 0.0
2018-Feb-19 13:19N 33°45' W 118°12'0 0.0
2018-Feb-19 12:52N 33°45' W 118°12'0 0.0
2018-Feb-19 12:16N 33°45' W 118°12'0 0.0
2018-Feb-19 11:58N 33°45' W 118°12'0 0.0
2018-Feb-19 11:31N 33°45' W 118°12'0 0.0
2018-Feb-19 11:01N 33°45' W 118°12'0 0.0
2018-Feb-19 03:50N 33°45' W 118°11'1 0.5
2018-Feb-19 02:37N 33°46' W 118°12'0 0.0
2018-Feb-19 02:25N 33°46' W 118°12'3 7.9
2018-Feb-19 02:00N 33°43' W 118°11'8 1.3
2018-Feb-18 19:42N 33°35' W 118°14'524.5
2018-Feb-18 19:30N 33°39' W 118°13'612.2
2018-Feb-18 18:59N 33°46' W 118°12'0 0.1
2018-Feb-18 18:29N 33°46' W 118°12'0 0.0
2018-Feb-18 17:59N 33°46' W 118°12'0 0.0
2018-Feb-18 17:29N 33°46' W 118°12'0 0.0
2018-Feb-18 16:59N 33°46' W 118°12'0 0.0
2018-Feb-18 16:26N 33°46' W 118°12'0 0.0
2018-Feb-18 15:56N 33°46' W 118°12'0 0.0
2018-Feb-18 15:26N 33°46' W 118°12'0 0.0
2018-Feb-18 06:04N 33°46' W 118°12'0 0.6
2018-Feb-18 05:58N 33°46' W 118°12'1921.3
2018-Feb-18 05:03N 33°27' W 118°17'326.4
2018-Feb-18 04:56N 33°24' W 118°18'3 5.1
2018-Feb-18 04:17N 33°21' W 118°19'1224.0
2018-Feb-18 03:46N 33°32' W 118°14'827.2
2018-Feb-18 03:28N 33°40' W 118°12'5 9.0
2018-Feb-18 02:52N 33°46' W 118°12'0 0.0
2018-Feb-18 02:22N 33°46' W 118°12'412.4
2018-Feb-18 02:00N 33°41' W 118°11'1324.9
2018-Feb-18 01:30N 33°29' W 118°15'8 7.4
2018-Feb-18 00:28N 33°22' W 118°19'1226.1
2018-Feb-18 00:00N 33°34' W 118°14'1223.6
2018-Feb-17 23:31N 33°45' W 118°11'1 2.1
2018-Feb-17 23:00N 33°46' W 118°12'0 0.0
2018-Feb-17 22:30N 33°46' W 118°12'1 2.9
2018-Feb-17 22:00N 33°45' W 118°11'1427.3
2018-Feb-17 21:30N 33°31' W 118°15'2 1.2
2018-Feb-17 19:58N 33°30' W 118°16'1124.7
2018-Feb-17 19:30N 33°41' W 118°12'5 9.4
2018-Feb-17 18:59N 33°46' W 118°12'0 0.0
2018-Feb-17 18:29N 33°46' W 118°12'1 2.4
2018-Feb-17 18:00N 33°45' W 118°11'1224.3
2018-Feb-17 17:30N 33°33' W 118°14'1326.2
2018-Feb-17 17:00N 33°21' W 118°19'0 0.5
2018-Feb-17 16:30N 33°21' W 118°19'1325.0
2018-Feb-17 16:00N 33°33' W 118°15'1325.3
2018-Feb-17 15:30N 33°45' W 118°11'1 2.1
2018-Feb-17 14:55N 33°46' W 118°12'0 0.0
2018-Feb-17 03:43N 33°46' W 118°12'2 8.6
2018-Feb-17 03:31N 33°44' W 118°11'1824.7
2018-Feb-17 02:47N 33°27' W 118°16'5 3.3
2018-Feb-17 01:19N 33°32' W 118°15'826.1
2018-Feb-17 01:00N 33°40' W 118°12'612.1
2018-Feb-17 00:30N 33°46' W 118°12'0 0.0
2018-Feb-17 00:00N 33°46' W 118°12'0 0.0
2018-Feb-16 23:30N 33°46' W 118°12'714.4
2018-Feb-16 23:00N 33°39' W 118°12'5 2.2
2018-Feb-16 20:53N 33°35' W 118°14'924.7
2018-Feb-16 20:30N 33°44' W 118°11'2 3.9
2018-Feb-16 19:56N 33°46' W 118°12'0 0.1
2018-Feb-16 19:30N 33°46' W 118°12'0 0.0
2018-Feb-16 04:53N 33°45' W 118°12'1021.9
2018-Feb-16 04:27N 33°36' W 118°13'1325.7
2018-Feb-16 03:57N 33°24' W 118°18'4 5.1
2018-Feb-16 03:15N 33°21' W 118°19'1022.9
2018-Feb-16 02:48N 33°30' W 118°15'725.1
2018-Feb-16 02:30N 33°38' W 118°13'815.9
2018-Feb-16 01:59N 33°46' W 118°12'0 0.0
2018-Feb-16 01:29N 33°46' W 118°12'4 9.3
2018-Feb-16 01:00N 33°41' W 118°11'1323.4
2018-Feb-16 00:28N 33°29' W 118°16'919.3
2018-Feb-15 23:59N 33°21' W 118°19'0 0.0
2018-Feb-15 23:19N 33°21' W 118°19'721.5
2018-Feb-15 23:00N 33°27' W 118°16'1224.4
2018-Feb-15 22:30N 33°39' W 118°13'713.1
2018-Feb-15 21:58N 33°46' W 118°12'0 0.0
2018-Feb-15 21:28N 33°46' W 118°12'0 0.3
2018-Feb-15 21:00N 33°46' W 118°12'918.3
2018-Feb-15 20:30N 33°37' W 118°13'1624.1
2018-Feb-15 19:51N 33°22' W 118°19'13 9.7
2018-Feb-15 18:29N 33°34' W 118°14'1122.2
2018-Feb-15 17:59N 33°45' W 118°11'1 1.8
2018-Feb-15 17:30N 33°46' W 118°12'0 0.0
2018-Feb-15 17:00N 33°46' W 118°12'815.7
2018-Feb-15 16:30N 33°38' W 118°12'4 1.9
2018-Feb-15 14:37N 33°35' W 118°14'326.2
2018-Feb-15 14:30N 33°38' W 118°13'814.7
2018-Feb-15 13:57N 33°46' W 118°12'0 0.0
2018-Feb-15 13:30N 33°46' W 118°12'0 0.0
2018-Feb-15 13:00N 33°46' W 118°12'0 0.0
2018-Feb-15 12:30N 33°46' W 118°12'0 0.1
2018-Feb-15 04:41N 33°45' W 118°12'417.0
2018-Feb-15 04:28N 33°42' W 118°11'2 0.9
2018-Feb-15 02:10N 33°40' W 118°12'425.7
2018-Feb-15 02:00N 33°44' W 118°11'2 3.3
2018-Feb-15 01:29N 33°46' W 118°12'0 1.0
2018-Feb-15 01:01N 33°45' W 118°12'1122.0
2018-Feb-15 00:30N 33°35' W 118°14'2 1.0
2018-Feb-14 22:45N 33°33' W 118°15'626.3
2018-Feb-14 22:30N 33°39' W 118°13'712.1
2018-Feb-14 21:57N 33°46' W 118°12'0 0.0
2018-Feb-14 21:30N 33°46' W 118°12'0 0.0
2018-Feb-14 21:00N 33°46' W 118°12'815.2
2018-Feb-14 20:30N 33°38' W 118°12'4 1.9
2018-Feb-14 18:27N 33°35' W 118°14'1124.0
2018-Feb-14 18:00N 33°45' W 118°11'1 2.2
2018-Feb-14 17:29N 33°46' W 118°12'0 0.0
2018-Feb-14 16:55N 33°46' W 118°12'718.1
2018-Feb-14 16:30N 33°38' W 118°12'1 0.4
2018-Feb-14 14:26N 33°39' W 118°12'714.3
2018-Feb-14 13:58N 33°46' W 118°12'0 0.0
2018-Feb-14 13:28N 33°46' W 118°12'0 0.0
2018-Feb-14 12:58N 33°46' W 118°12'0 0.0
2018-Feb-14 12:28N 33°46' W 118°12'0 0.0
2018-Feb-14 06:11N 33°46' W 118°12'0 0.0
2018-Feb-14 05:56N 33°46' W 118°12'0 0.0
2018-Feb-14 05:29N 33°46' W 118°12'0 0.0
2018-Feb-14 04:59N 33°46' W 118°12'4 7.2
2018-Feb-14 04:27N 33°42' W 118°11'1 0.3
2018-Feb-14 02:10N 33°42' W 118°12'417.8
2018-Feb-14 01:58N 33°45' W 118°11'1 1.5
2018-Feb-14 01:27N 33°46' W 118°12'1 1.5
2018-Feb-14 01:00N 33°45' W 118°11'1224.3
2018-Feb-14 00:30N 33°33' W 118°14'2 1.0
2018-Feb-13 22:42N 33°35' W 118°14'526.0
2018-Feb-13 22:30N 33°40' W 118°12'611.5
2018-Feb-13 21:59N 33°46' W 118°12'0 0.0
2018-Feb-13 21:29N 33°46' W 118°12'0 0.0
2018-Feb-13 20:59N 33°46' W 118°12'918.6
2018-Feb-13 20:29N 33°37' W 118°13'3 1.7
2018-Feb-13 18:34N 33°34' W 118°15'226.3
2018-Feb-13 18:30N 33°35' W 118°14'1121.4
2018-Feb-13 18:00N 33°46' W 118°12'0 0.7
2018-Feb-13 17:27N 33°46' W 118°12'0 0.0
2018-Feb-13 16:57N 33°46' W 118°12'816.7
2018-Feb-13 16:30N 33°38' W 118°12'5 2.5
2018-Feb-13 14:37N 33°34' W 118°14'626.9
2018-Feb-13 14:23N 33°40' W 118°12'615.1
2018-Feb-13 14:00N 33°46' W 118°12'0 0.0
2018-Feb-13 13:30N 33°46' W 118°12'0 0.0
2018-Feb-13 13:00N 33°46' W 118°12'0 0.0
2018-Feb-13 12:30N 33°46' W 118°12'1 0.1
2018-Feb-13 04:32N 33°45' W 118°11'118.9
2018-Feb-13 04:30N 33°45' W 118°11'3 1.4
2018-Feb-13 02:13N 33°42' W 118°12'415.7
2018-Feb-13 01:59N 33°45' W 118°11'1 1.4
2018-Feb-13 01:29N 33°46' W 118°12'1 1.8
2018-Feb-13 01:00N 33°45' W 118°11'1324.5
2018-Feb-13 00:29N 33°33' W 118°14'1 0.8
2018-Feb-12 22:43N 33°34' W 118°14'725.4
2018-Feb-12 22:28N 33°40' W 118°12'5 8.9
2018-Feb-12 21:52N 33°46' W 118°12'0 0.0
2018-Feb-12 21:22N 33°46' W 118°12'1 1.7
2018-Feb-12 21:00N 33°45' W 118°11'12 4.9
2018-Feb-12 18:33N 33°33' W 118°14'225.3
2018-Feb-12 18:29N 33°35' W 118°13'1021.7
2018-Feb-12 18:00N 33°45' W 118°11'1 0.6
2018-Feb-12 16:59N 33°46' W 118°12'918.8
2018-Feb-12 16:29N 33°36' W 118°13'1 0.8
2018-Feb-12 14:39N 33°35' W 118°13'425.4
2018-Feb-12 14:30N 33°39' W 118°12'712.6
2018-Feb-12 13:57N 33°46' W 118°12'0 0.0
2018-Feb-12 13:30N 33°46' W 118°12'0 0.0
2018-Feb-12 11:55N 33°46' W 118°12'0 0.0
2018-Feb-12 11:28N 33°46' W 118°12'0 0.0
2018-Feb-12 10:58N 33°46' W 118°12'0 0.0
2018-Feb-12 10:28N 33°46' W 118°12'0 0.0
2018-Feb-12 09:46N 33°46' W 118°12'0 0.0
2018-Feb-12 09:28N 33°46' W 118°12'0 0.0
2018-Feb-12 08:37N 33°46' W 118°12'0 0.0
2018-Feb-12 08:28N 33°46' W 118°12'0 0.0
2018-Feb-12 07:58N 33°46' W 118°12'0 0.0
2018-Feb-12 07:28N 33°46' W 118°12'0 0.0
2018-Feb-12 06:58N 33°46' W 118°12'0 0.0
2018-Feb-12 06:28N 33°46' W 118°12'0 0.0
2018-Feb-12 05:58N 33°46' W 118°12'0 0.0
2018-Feb-12 05:31N 33°46' W 118°12'0 0.0
2018-Feb-12 04:57N 33°46' W 118°12'0 0.0
2018-Feb-12 04:27N 33°46' W 118°12'0 0.0
2018-Feb-12 04:00N 33°46' W 118°12'0 0.2
2018-Feb-12 03:30N 33°46' W 118°12'1219.8
2018-Feb-12 02:52N 33°33' W 118°14'925.7
2018-Feb-12 02:30N 33°25' W 118°18'11 8.1
2018-Feb-12 01:08N 33°35' W 118°14'426.9
2018-Feb-12 01:00N 33°39' W 118°13'713.2
2018-Feb-12 00:28N 33°46' W 118°12'0 0.0
2018-Feb-11 23:46N 33°46' W 118°12'0 0.0
2018-Feb-11 23:27N 33°46' W 118°12'817.6
2018-Feb-11 23:01N 33°38' W 118°12'1425.9
2018-Feb-11 22:27N 33°24' W 118°18'7 5.2
2018-Feb-11 21:02N 33°31' W 118°14'125.3
2018-Feb-11 21:00N 33°32' W 118°14'1325.7
2018-Feb-11 20:30N 33°44' W 118°11'2 3.3
2018-Feb-11 19:59N 33°46' W 118°12'0 0.0
2018-Feb-11 19:29N 33°46' W 118°12'510.2
2018-Feb-11 19:00N 33°41' W 118°11'1427.4
2018-Feb-11 18:29N 33°27' W 118°16'7 4.3
2018-Feb-11 16:51N 33°34' W 118°14'926.8
2018-Feb-11 16:30N 33°43' W 118°11'3 5.3
2018-Feb-11 15:56N 33°46' W 118°12'0 0.0
2018-Feb-11 15:29N 33°46' W 118°12'0 0.0
2018-Feb-11 14:58N 33°46' W 118°12'0 0.0
2018-Feb-11 03:28N 33°46' W 118°12'12 5.1
2018-Feb-11 01:07N 33°34' W 118°14'327.4
2018-Feb-11 01:00N 33°37' W 118°13'915.7
2018-Feb-11 00:26N 33°46' W 118°12'0 0.0
2018-Feb-10 23:59N 33°46' W 118°12'0 0.0
2018-Feb-10 23:29N 33°46' W 118°12'713.6
2018-Feb-10 23:01N 33°39' W 118°12'5 2.7
2018-Feb-10 20:59N 33°34' W 118°14'1123.4
2018-Feb-10 20:30N 33°45' W 118°11'1 1.4
2018-Feb-10 19:59N 33°46' W 118°12'0 0.0
2018-Feb-10 19:26N 33°46' W 118°12'511.5
2018-Feb-10 19:01N 33°41' W 118°11'6 3.0
2018-Feb-10 16:56N 33°35' W 118°14'1023.9
2018-Feb-10 16:30N 33°45' W 118°11'1 1.5
2018-Feb-10 15:58N 33°46' W 118°12'0 0.0
2018-Feb-10 15:28N 33°46' W 118°12'0 0.0
2018-Feb-10 03:30N 33°46' W 118°12'1015.9
2018-Feb-10 02:54N 33°36' W 118°13'1227.8
2018-Feb-10 02:27N 33°25' W 118°18'1 0.6
2018-Feb-10 01:35N 33°25' W 118°18'227.4
2018-Feb-10 01:30N 33°27' W 118°17'1326.9
2018-Feb-10 01:00N 33°40' W 118°12'610.6
2018-Feb-10 00:28N 33°46' W 118°12'0 0.0
2018-Feb-09 23:58N 33°46' W 118°12'0 0.0
2018-Feb-09 23:28N 33°46' W 118°12'715.3
2018-Feb-09 23:00N 33°39' W 118°12'928.0
2018-Feb-09 22:42N 33°31' W 118°15'15 4.8
2018-Feb-09 19:30N 33°46' W 118°12'  
Track history (hours):
 
Tides and Currents Weather Stations Pressure Air Temp Water Temp Dewpoint Dewpoint Depression Visibility Wind Speed Wind Dir Waves Ship Positions

Starship Express

Owner: CATALINA CHANNEL EXPRESS INC, SAN PEDRO, CA. More information available from US FCC via Universal Licensing System and Coast Guard Vessel Documentation Center.

Last reported at 2018-Feb-19 17:58 UTC. Time now 2018-Feb-19 18:15 UTC.
Position N 33°45' W 118°12'.

Length 41 m; draft 3 m.

Type: High speed craft. MMSI: 366768030.

Date/timePositionNaut miles runAvg speedWind from/ knotsBaromVisibWave heightAir tempDewpointWater temp
2018-Feb-19 17:58N 33°45' W 118°12'0 0.0
2018-Feb-19 17:28N 33°45' W 118°12'0 0.0
2018-Feb-19 16:55N 33°45' W 118°12'0 0.0
2018-Feb-19 16:28N 33°45' W 118°12'0 0.0
2018-Feb-19 15:58N 33°45' W 118°12'0 0.0
2018-Feb-19 15:25N 33°45' W 118°12'0 0.0
2018-Feb-19 14:49N 33°45' W 118°12'0 0.0
2018-Feb-19 14:16N 33°45' W 118°12'0 0.0
2018-Feb-19 13:49N 33°45' W 118°12'0 0.0
2018-Feb-19 13:19N 33°45' W 118°12'0 0.0
2018-Feb-19 12:52N 33°45' W 118°12'0 0.0
2018-Feb-19 12:16N 33°45' W 118°12'0 0.0
2018-Feb-19 11:58N 33°45' W 118°12'0 0.0
2018-Feb-19 11:31N 33°45' W 118°12'0 0.0
2018-Feb-19 11:01N 33°45' W 118°12'0 0.0
2018-Feb-19 03:50N 33°45' W 118°11'1 0.5
2018-Feb-19 02:37N 33°46' W 118°12'0 0.0
2018-Feb-19 02:25N 33°46' W 118°12'3 7.9
2018-Feb-19 02:00N 33°43' W 118°11'8 1.3
2018-Feb-18 19:42N 33°35' W 118°14'524.5
2018-Feb-18 19:30N 33°39' W 118°13'612.2
2018-Feb-18 18:59N 33°46' W 118°12'0 0.1
2018-Feb-18 18:29N 33°46' W 118°12'0 0.0
2018-Feb-18 17:59N 33°46' W 118°12'0 0.0
2018-Feb-18 17:29N 33°46' W 118°12'0 0.0
2018-Feb-18 16:59N 33°46' W 118°12'0 0.0
2018-Feb-18 16:26N 33°46' W 118°12'0 0.0
2018-Feb-18 15:56N 33°46' W 118°12'0 0.0
2018-Feb-18 15:26N 33°46' W 118°12'0 0.0
2018-Feb-18 06:04N 33°46' W 118°12'0 0.6
2018-Feb-18 05:58N 33°46' W 118°12'1921.3
2018-Feb-18 05:03N 33°27' W 118°17'326.4
2018-Feb-18 04:56N 33°24' W 118°18'3 5.1
2018-Feb-18 04:17N 33°21' W 118°19'1224.0
2018-Feb-18 03:46N 33°32' W 118°14'827.2
2018-Feb-18 03:28N 33°40' W 118°12'5 9.0
2018-Feb-18 02:52N 33°46' W 118°12'0 0.0
2018-Feb-18 02:22N 33°46' W 118°12'412.4
2018-Feb-18 02:00N 33°41' W 118°11'1324.9
2018-Feb-18 01:30N 33°29' W 118°15'8 7.4
2018-Feb-18 00:28N 33°22' W 118°19'1226.1
2018-Feb-18 00:00N 33°34' W 118°14'1223.6
2018-Feb-17 23:31N 33°45' W 118°11'1 2.1
2018-Feb-17 23:00N 33°46' W 118°12'0 0.0
2018-Feb-17 22:30N 33°46' W 118°12'1 2.9
2018-Feb-17 22:00N 33°45' W 118°11'1427.3
2018-Feb-17 21:30N 33°31' W 118°15'2 1.2
2018-Feb-17 19:58N 33°30' W 118°16'1124.7
2018-Feb-17 19:30N 33°41' W 118°12'5 9.4
2018-Feb-17 18:59N 33°46' W 118°12'0 0.0
2018-Feb-17 18:29N 33°46' W 118°12'1 2.4
2018-Feb-17 18:00N 33°45' W 118°11'1224.3
2018-Feb-17 17:30N 33°33' W 118°14'1326.2
2018-Feb-17 17:00N 33°21' W 118°19'0 0.5
2018-Feb-17 16:30N 33°21' W 118°19'1325.0
2018-Feb-17 16:00N 33°33' W 118°15'1325.3
2018-Feb-17 15:30N 33°45' W 118°11'1 2.1
2018-Feb-17 14:55N 33°46' W 118°12'0 0.0
2018-Feb-17 03:43N 33°46' W 118°12'2 8.6
2018-Feb-17 03:31N 33°44' W 118°11'1824.7
2018-Feb-17 02:47N 33°27' W 118°16'5 3.3
2018-Feb-17 01:19N 33°32' W 118°15'826.1
2018-Feb-17 01:00N 33°40' W 118°12'612.1
2018-Feb-17 00:30N 33°46' W 118°12'0 0.0
2018-Feb-17 00:00N 33°46' W 118°12'0 0.0
2018-Feb-16 23:30N 33°46' W 118°12'714.4
2018-Feb-16 23:00N 33°39' W 118°12'5 2.2
2018-Feb-16 20:53N 33°35' W 118°14'924.7
2018-Feb-16 20:30N 33°44' W 118°11'2 3.9
2018-Feb-16 19:56N 33°46' W 118°12'0 0.1
2018-Feb-16 19:30N 33°46' W 118°12'0 0.0
2018-Feb-16 04:53N 33°45' W 118°12'1021.9
2018-Feb-16 04:27N 33°36' W 118°13'1325.7
2018-Feb-16 03:57N 33°24' W 118°18'4 5.1
2018-Feb-16 03:15N 33°21' W 118°19'1022.9
2018-Feb-16 02:48N 33°30' W 118°15'725.1
2018-Feb-16 02:30N 33°38' W 118°13'815.9
2018-Feb-16 01:59N 33°46' W 118°12'0 0.0
2018-Feb-16 01:29N 33°46' W 118°12'4 9.3
2018-Feb-16 01:00N 33°41' W 118°11'1323.4
2018-Feb-16 00:28N 33°29' W 118°16'919.3
2018-Feb-15 23:59N 33°21' W 118°19'0 0.0
2018-Feb-15 23:19N 33°21' W 118°19'721.5
2018-Feb-15 23:00N 33°27' W 118°16'1224.4
2018-Feb-15 22:30N 33°39' W 118°13'713.1
2018-Feb-15 21:58N 33°46' W 118°12'0 0.0
2018-Feb-15 21:28N 33°46' W 118°12'0 0.3
2018-Feb-15 21:00N 33°46' W 118°12'918.3
2018-Feb-15 20:30N 33°37' W 118°13'1624.1
2018-Feb-15 19:51N 33°22' W 118°19'13 9.7
2018-Feb-15 18:29N 33°34' W 118°14'1122.2
2018-Feb-15 17:59N 33°45' W 118°11'1 1.8
2018-Feb-15 17:30N 33°46' W 118°12'0 0.0
2018-Feb-15 17:00N 33°46' W 118°12'815.7
2018-Feb-15 16:30N 33°38' W 118°12'4 1.9
2018-Feb-15 14:37N 33°35' W 118°14'326.2
2018-Feb-15 14:30N 33°38' W 118°13'814.7
2018-Feb-15 13:57N 33°46' W 118°12'0 0.0
2018-Feb-15 13:30N 33°46' W 118°12'0 0.0
2018-Feb-15 13:00N 33°46' W 118°12'0 0.0
2018-Feb-15 12:30N 33°46' W 118°12'0 0.1
2018-Feb-15 04:41N 33°45' W 118°12'417.0
2018-Feb-15 04:28N 33°42' W 118°11'2 0.9
2018-Feb-15 02:10N 33°40' W 118°12'425.7
2018-Feb-15 02:00N 33°44' W 118°11'2 3.3
2018-Feb-15 01:29N 33°46' W 118°12'0 1.0
2018-Feb-15 01:01N 33°45' W 118°12'1122.0
2018-Feb-15 00:30N 33°35' W 118°14'2 1.0
2018-Feb-14 22:45N 33°33' W 118°15'626.3
2018-Feb-14 22:30N 33°39' W 118°13'712.1
2018-Feb-14 21:57N 33°46' W 118°12'0 0.0
2018-Feb-14 21:30N 33°46' W 118°12'0 0.0
2018-Feb-14 21:00N 33°46' W 118°12'815.2
2018-Feb-14 20:30N 33°38' W 118°12'4 1.9
2018-Feb-14 18:27N 33°35' W 118°14'1124.0
2018-Feb-14 18:00N 33°45' W 118°11'1 2.2
2018-Feb-14 17:29N 33°46' W 118°12'0 0.0
2018-Feb-14 16:55N 33°46' W 118°12'718.1
2018-Feb-14 16:30N 33°38' W 118°12'1 0.4
2018-Feb-14 14:26N 33°39' W 118°12'714.3
2018-Feb-14 13:58N 33°46' W 118°12'0 0.0
2018-Feb-14 13:28N 33°46' W 118°12'0 0.0
2018-Feb-14 12:58N 33°46' W 118°12'0 0.0
2018-Feb-14 12:28N 33°46' W 118°12'0 0.0
2018-Feb-14 06:11N 33°46' W 118°12'0 0.0
2018-Feb-14 05:56N 33°46' W 118°12'0 0.0
2018-Feb-14 05:29N 33°46' W 118°12'0 0.0
2018-Feb-14 04:59N 33°46' W 118°12'4 7.2
2018-Feb-14 04:27N 33°42' W 118°11'1 0.3
2018-Feb-14 02:10N 33°42' W 118°12'417.8
2018-Feb-14 01:58N 33°45' W 118°11'1 1.5
2018-Feb-14 01:27N 33°46' W 118°12'1 1.5
2018-Feb-14 01:00N 33°45' W 118°11'1224.3
2018-Feb-14 00:30N 33°33' W 118°14'2 1.0
2018-Feb-13 22:42N 33°35' W 118°14'526.0
2018-Feb-13 22:30N 33°40' W 118°12'611.5
2018-Feb-13 21:59N 33°46' W 118°12'0 0.0
2018-Feb-13 21:29N 33°46' W 118°12'0 0.0
2018-Feb-13 20:59N 33°46' W 118°12'918.6
2018-Feb-13 20:29N 33°37' W 118°13'3 1.7
2018-Feb-13 18:34N 33°34' W 118°15'226.3
2018-Feb-13 18:30N 33°35' W 118°14'1121.4
2018-Feb-13 18:00N 33°46' W 118°12'0 0.7
2018-Feb-13 17:27N 33°46' W 118°12'0 0.0
2018-Feb-13 16:57N 33°46' W 118°12'816.7
2018-Feb-13 16:30N 33°38' W 118°12'5 2.5
2018-Feb-13 14:37N 33°34' W 118°14'626.9
2018-Feb-13 14:23N 33°40' W 118°12'615.1
2018-Feb-13 14:00N 33°46' W 118°12'0 0.0
2018-Feb-13 13:30N 33°46' W 118°12'0 0.0
2018-Feb-13 13:00N 33°46' W 118°12'0 0.0
2018-Feb-13 12:30N 33°46' W 118°12'1 0.1
2018-Feb-13 04:32N 33°45' W 118°11'118.9
2018-Feb-13 04:30N 33°45' W 118°11'3 1.4
2018-Feb-13 02:13N 33°42' W 118°12'415.7
2018-Feb-13 01:59N 33°45' W 118°11'1 1.4
2018-Feb-13 01:29N 33°46' W 118°12'1 1.8
2018-Feb-13 01:00N 33°45' W 118°11'1324.5
2018-Feb-13 00:29N 33°33' W 118°14'1 0.8
2018-Feb-12 22:43N 33°34' W 118°14'725.4
2018-Feb-12 22:28N 33°40' W 118°12'5 8.9
2018-Feb-12 21:52N 33°46' W 118°12'0 0.0
2018-Feb-12 21:22N 33°46' W 118°12'1 1.7
2018-Feb-12 21:00N 33°45' W 118°11'12 4.9
2018-Feb-12 18:33N 33°33' W 118°14'225.3
2018-Feb-12 18:29N 33°35' W 118°13'1021.7
2018-Feb-12 18:00N 33°45' W 118°11'1 0.6
2018-Feb-12 16:59N 33°46' W 118°12'918.8
2018-Feb-12 16:29N 33°36' W 118°13'1 0.8
2018-Feb-12 14:39N 33°35' W 118°13'425.4
2018-Feb-12 14:30N 33°39' W 118°12'712.6
2018-Feb-12 13:57N 33°46' W 118°12'0 0.0
2018-Feb-12 13:30N 33°46' W 118°12'0 0.0
2018-Feb-12 11:55N 33°46' W 118°12'0 0.0
2018-Feb-12 11:28N 33°46' W 118°12'0 0.0
2018-Feb-12 10:58N 33°46' W 118°12'0 0.0
2018-Feb-12 10:28N 33°46' W 118°12'0 0.0
2018-Feb-12 09:46N 33°46' W 118°12'0 0.0
2018-Feb-12 09:28N 33°46' W 118°12'0 0.0
2018-Feb-12 08:37N 33°46' W 118°12'0 0.0
2018-Feb-12 08:28N 33°46' W 118°12'0 0.0
2018-Feb-12 07:58N 33°46' W 118°12'0 0.0
2018-Feb-12 07:28N 33°46' W 118°12'0 0.0
2018-Feb-12 06:58N 33°46' W 118°12'0 0.0
2018-Feb-12 06:28N 33°46' W 118°12'0 0.0
2018-Feb-12 05:58N 33°46' W 118°12'0 0.0
2018-Feb-12 05:31N 33°46' W 118°12'0 0.0
2018-Feb-12 04:57N 33°46' W 118°12'0 0.0
2018-Feb-12 04:27N 33°46' W 118°12'0 0.0
2018-Feb-12 04:00N 33°46' W 118°12'0 0.2
2018-Feb-12 03:30N 33°46' W 118°12'1219.8
2018-Feb-12 02:52N 33°33' W 118°14'925.7
2018-Feb-12 02:30N 33°25' W 118°18'11 8.1
2018-Feb-12 01:08N 33°35' W 118°14'426.9
2018-Feb-12 01:00N 33°39' W 118°13'713.2
2018-Feb-12 00:28N 33°46' W 118°12'0 0.0
2018-Feb-11 23:46N 33°46' W 118°12'0 0.0
2018-Feb-11 23:27N 33°46' W 118°12'817.6
2018-Feb-11 23:01N 33°38' W 118°12'1425.9
2018-Feb-11 22:27N 33°24' W 118°18'7 5.2
2018-Feb-11 21:02N 33°31' W 118°14'125.3
2018-Feb-11 21:00N 33°32' W 118°14'1325.7
2018-Feb-11 20:30N 33°44' W 118°11'2 3.3
2018-Feb-11 19:59N 33°46' W 118°12'0 0.0
2018-Feb-11 19:29N 33°46' W 118°12'510.2
2018-Feb-11 19:00N 33°41' W 118°11'1427.4
2018-Feb-11 18:29N 33°27' W 118°16'7 4.3
2018-Feb-11 16:51N 33°34' W 118°14'926.8
2018-Feb-11 16:30N 33°43' W 118°11'3 5.3
2018-Feb-11 15:56N 33°46' W 118°12'0 0.0
2018-Feb-11 15:29N 33°46' W 118°12'0 0.0
2018-Feb-11 14:58N 33°46' W 118°12'0 0.0
2018-Feb-11 03:28N 33°46' W 118°12'12 5.1
2018-Feb-11 01:07N 33°34' W 118°14'327.4
2018-Feb-11 01:00N 33°37' W 118°13'915.7
2018-Feb-11 00:26N 33°46' W 118°12'0 0.0
2018-Feb-10 23:59N 33°46' W 118°12'0 0.0
2018-Feb-10 23:29N 33°46' W 118°12'713.6
2018-Feb-10 23:01N 33°39' W 118°12'5 2.7
2018-Feb-10 20:59N 33°34' W 118°14'1123.4
2018-Feb-10 20:30N 33°45' W 118°11'1 1.4
2018-Feb-10 19:59N 33°46' W 118°12'0 0.0
2018-Feb-10 19:26N 33°46' W 118°12'511.5
2018-Feb-10 19:01N 33°41' W 118°11'6 3.0
2018-Feb-10 16:56N 33°35' W 118°14'1023.9
2018-Feb-10 16:30N 33°45' W 118°11'1 1.5
2018-Feb-10 15:58N 33°46' W 118°12'0 0.0
2018-Feb-10 15:28N 33°46' W 118°12'0 0.0
2018-Feb-10 03:30N 33°46' W 118°12'1015.9
2018-Feb-10 02:54N 33°36' W 118°13'1227.8
2018-Feb-10 02:27N 33°25' W 118°18'1 0.6
2018-Feb-10 01:35N 33°25' W 118°18'227.4
2018-Feb-10 01:30N 33°27' W 118°17'1326.9
2018-Feb-10 01:00N 33°40' W 118°12'610.6
2018-Feb-10 00:28N 33°46' W 118°12'0 0.0
2018-Feb-09 23:58N 33°46' W 118°12'0 0.0
2018-Feb-09 23:28N 33°46' W 118°12'715.3
2018-Feb-09 23:00N 33°39' W 118°12'928.0
2018-Feb-09 22:42N 33°31' W 118°15'15 4.8
2018-Feb-09 19:30N 33°46' W 118°12'  

Dump ship's entire track history